Time;durP1;ratioP1;P1;durP2;ratioP2;P2;SDS_P1;SDS_P2;PMS_P1;PMS_P2;Temp;Humidity;BMP_temperature;BMP_pressure;BME280_temperature;BME280_humidity;BME280_pressure;Samples;Min_cycle;Max_cycle;Signal;HPM_P1;HPM_P2
2022/04/27 00:01:47;;;;;;;10.05;6.78;;;18.80;57.80;;;;;;5014333;28;20033;-60
2022/04/27 00:04:12;;;;;;;9.23;6.80;;;18.80;57.80;;;;;;5019533;28;20029;-60
2022/04/27 00:06:38;;;;;;;10.50;7.03;;;18.80;57.80;;;;;;5020540;28;20056;-59
2022/04/27 00:09:04;;;;;;;8.98;6.68;;;18.80;58.00;;;;;;5020035;28;20017;-60
2022/04/27 00:11:29;;;;;;;10.02;6.45;;;18.70;57.80;;;;;;5023325;28;20120;-60
2022/04/27 00:13:56;;;;;;;10.10;6.60;;;18.70;57.80;;;;;;5013600;28;20044;-60
2022/04/27 00:16:22;;;;;;;9.90;6.55;;;18.70;58.00;;;;;;5019472;28;20034;-60
2022/04/27 00:18:47;;;;;;;10.57;6.90;;;18.70;58.00;;;;;;5015586;28;20041;-60
2022/04/27 00:21:13;;;;;;;9.73;6.57;;;18.70;58.00;;;;;;5020331;28;20022;-60
2022/04/27 00:23:39;;;;;;;10.52;7.13;;;18.70;57.90;;;;;;5016110;28;20029;-60
2022/04/27 00:26:05;;;;;;;10.05;6.80;;;18.70;58.00;;;;;;5011961;28;20080;-60
2022/04/27 00:28:31;;;;;;;9.73;6.57;;;18.70;58.00;;;;;;5018112;28;20038;-60
2022/04/27 00:30:56;;;;;;;9.57;6.50;;;18.70;58.00;;;;;;5017314;28;20026;-60
2022/04/27 00:33:22;;;;;;;8.40;5.80;;;18.70;58.00;;;;;;5015665;28;20040;-60
2022/04/27 00:35:47;;;;;;;9.80;6.22;;;18.70;57.90;;;;;;5014539;28;20025;-60
2022/04/27 00:38:13;;;;;;;10.32;6.60;;;18.60;58.00;;;;;;5010642;28;20041;-60
2022/04/27 00:40:39;;;;;;;8.82;5.97;;;18.60;58.00;;;;;;5015267;28;20029;-60
2022/04/27 00:43:05;;;;;;;9.77;6.20;;;18.70;58.10;;;;;;5016950;28;20029;-60
2022/04/27 00:45:30;;;;;;;9.90;6.43;;;18.60;58.10;;;;;;5015070;28;20037;-60
2022/04/27 00:47:56;;;;;;;9.68;6.20;;;18.60;58.10;;;;;;5015702;28;20048;-60
2022/04/27 00:50:22;;;;;;;9.48;6.10;;;18.60;58.10;;;;;;5021003;28;20033;-60
2022/04/27 00:52:48;;;;;;;9.75;5.78;;;18.60;58.00;;;;;;5015402;28;20034;-60
2022/04/27 00:55:13;;;;;;;8.90;6.00;;;18.60;58.10;;;;;;5017007;28;20041;-60
2022/04/27 00:57:46;;;;;;;9.77;5.90;;;18.60;58.10;;;;;;5016841;28;20095;-60
2022/04/27 01:00:12;;;;;;;9.38;5.95;;;18.60;58.10;;;;;;5019725;28;20025;-60
2022/04/27 01:02:40;;;;;;;8.65;5.75;;;18.60;58.20;;;;;;5015536;28;20108;-60
2022/04/27 01:05:09;;;;;;;10.10;6.25;;;18.60;58.10;;;;;;5012538;28;20026;-60
2022/04/27 01:07:36;;;;;;;9.43;5.93;;;18.50;58.10;;;;;;5013697;28;20125;-60
2022/04/27 01:10:02;;;;;;;9.07;6.10;;;18.50;58.10;;;;;;5018972;28;20025;-60
2022/04/27 01:12:28;;;;;;;9.68;6.30;;;18.50;58.10;;;;;;5016995;28;20025;-60
2022/04/27 01:14:54;;;;;;;9.88;6.20;;;18.50;58.20;;;;;;5013257;28;20029;-60
2022/04/27 01:17:23;;;;;;;10.00;6.03;;;18.50;58.10;;;;;;5015401;28;20410;-60
2022/04/27 01:19:48;;;;;;;9.32;5.88;;;18.50;58.10;;;;;;5017036;28;20552;-60
2022/04/27 01:22:14;;;;;;;9.13;6.35;;;18.50;58.10;;;;;;5016926;28;20033;-60
2022/04/27 01:24:40;;;;;;;8.95;6.00;;;18.50;58.10;;;;;;5013525;28;20021;-60
2022/04/27 01:27:06;;;;;;;8.73;5.63;;;18.50;58.10;;;;;;5014591;28;20532;-60
2022/04/27 01:29:32;;;;;;;9.20;5.95;;;18.50;58.40;;;;;;5012941;28;20104;-60
2022/04/27 01:32:00;;;;;;;8.73;5.88;;;18.50;58.10;;;;;;5016797;28;20029;-60
2022/04/27 01:34:26;;;;;;;10.10;6.07;;;18.50;58.10;;;;;;5018768;28;20604;-60
2022/04/27 01:36:54;;;;;;;9.52;5.93;;;18.50;58.20;;;;;;5019190;28;20108;-60
2022/04/27 01:39:23;;;;;;;8.68;6.07;;;18.40;58.20;;;;;;5017957;28;20029;-60
2022/04/27 01:41:49;;;;;;;9.23;5.78;;;18.40;58.10;;;;;;5009879;28;20044;-60
2022/04/27 01:44:15;;;;;;;8.95;5.45;;;18.40;58.10;;;;;;5009432;28;20033;-59
2022/04/27 01:46:40;;;;;;;8.60;6.00;;;18.40;58.10;;;;;;5012367;28;20042;-60
2022/04/27 01:49:06;;;;;;;9.50;5.68;;;18.40;58.10;;;;;;5021203;28;20183;-59
2022/04/27 01:54:16;;;;;;;8.10;5.32;;;18.40;58.20;;;;;;5016809;28;20040;-60
2022/04/27 01:56:43;;;;;;;9.02;5.90;;;18.40;58.30;;;;;;5017611;28;20029;-59
2022/04/27 01:59:09;;;;;;;9.68;6.03;;;18.40;58.40;;;;;;5010750;28;20026;-60
2022/04/27 02:01:35;;;;;;;8.18;5.18;;;18.40;58.20;;;;;;5018337;28;20030;-60
2022/04/27 02:04:00;;;;;;;8.77;5.95;;;18.40;58.20;;;;;;5014060;28;20045;-60
2022/04/27 02:06:26;;;;;;;9.13;5.80;;;18.40;58.20;;;;;;5015164;28;20076;-60
2022/04/27 02:08:52;;;;;;;7.85;4.97;;;18.40;58.20;;;;;;5015121;28;20028;-60
2022/04/27 02:11:20;;;;;;;8.55;5.47;;;18.30;58.30;;;;;;5010792;28;20765;-60
2022/04/27 02:13:46;;;;;;;9.25;5.88;;;18.30;58.40;;;;;;5009631;28;20034;-60
2022/04/27 02:16:12;;;;;;;8.52;5.55;;;18.30;58.20;;;;;;5013969;28;20026;-60
2022/04/27 02:18:38;;;;;;;8.90;5.63;;;18.30;58.20;;;;;;5016705;28;20045;-60
2022/04/27 02:21:04;;;;;;;8.55;5.40;;;18.30;58.20;;;;;;5012118;28;20419;-60
2022/04/27 02:23:30;;;;;;;8.13;5.20;;;18.30;58.20;;;;;;5012801;28;20061;-60
2022/04/27 02:26:00;;;;;;;7.70;5.28;;;18.30;58.30;;;;;;5015739;28;20026;-60
2022/04/27 02:28:26;;;;;;;8.43;5.43;;;18.30;58.30;;;;;;5015693;28;20473;-60
2022/04/27 02:30:52;;;;;;;9.00;5.78;;;18.30;58.20;;;;;;5017224;28;20385;-60
2022/04/27 02:33:17;;;;;;;8.90;5.32;;;18.30;58.20;;;;;;5012307;28;20021;-60
2022/04/27 02:35:43;;;;;;;7.82;4.85;;;18.30;58.30;;;;;;5012753;28;20028;-60
2022/04/27 02:38:08;;;;;;;8.30;5.10;;;18.20;58.20;;;;;;5014440;28;21140;-60
2022/04/27 02:40:35;;;;;;;8.13;5.15;;;18.30;58.50;;;;;;5020782;28;20156;-60
2022/04/27 02:43:00;;;;;;;8.38;5.18;;;18.30;58.40;;;;;;5015019;28;20387;-60
2022/04/27 02:45:26;;;;;;;8.18;5.15;;;18.30;58.40;;;;;;5013236;28;20034;-60
2022/04/27 02:47:51;;;;;;;7.78;5.35;;;18.20;58.40;;;;;;5012162;28;20128;-60
2022/04/27 02:53:01;;;;;;;8.35;5.15;;;18.20;58.40;;;;;;5022825;28;20536;-60
2022/04/27 02:55:27;;;;;;;7.57;4.75;;;18.20;58.30;;;;;;5028634;28;20029;-60
2022/04/27 02:57:53;;;;;;;7.45;5.03;;;18.20;58.30;;;;;;5022252;28;20033;-60
2022/04/27 03:00:18;;;;;;;7.82;5.00;;;18.20;58.30;;;;;;5021330;28;20557;-60
2022/04/27 03:02:44;;;;;;;7.70;4.82;;;18.20;58.40;;;;;;5017219;28;20018;-60
2022/04/27 03:05:09;;;;;;;7.45;4.88;;;18.20;58.30;;;;;;5014834;28;20088;-59
2022/04/27 03:07:35;;;;;;;8.07;5.22;;;18.20;58.30;;;;;;5017057;28;20041;-60
2022/04/27 03:10:01;;;;;;;8.73;5.50;;;18.20;58.50;;;;;;5018013;28;20084;-60
2022/04/27 03:12:26;;;;;;;7.70;4.93;;;18.20;58.40;;;;;;5019104;28;20030;-60
2022/04/27 03:14:52;;;;;;;8.30;5.22;;;18.20;58.30;;;;;;5019891;28;20025;-59
2022/04/27 03:17:18;;;;;;;8.43;5.60;;;18.20;58.30;;;;;;5016198;28;20033;-60
2022/04/27 03:19:43;;;;;;;8.05;4.82;;;18.20;58.40;;;;;;5016541;28;20107;-60
2022/04/27 03:22:09;;;;;;;8.68;4.85;;;18.20;58.30;;;;;;5016738;28;20379;-60
2022/04/27 03:24:35;;;;;;;8.82;5.28;;;18.20;58.30;;;;;;5015261;28;20483;-60
2022/04/27 03:27:00;;;;;;;7.63;5.35;;;18.20;58.40;;;;;;5016486;28;20029;-60
2022/04/27 03:29:26;;;;;;;7.40;4.85;;;18.10;58.30;;;;;;5019346;28;20037;-60
2022/04/27 03:31:52;;;;;;;8.50;4.93;;;18.20;58.40;;;;;;5015541;28;20398;-60
2022/04/27 03:34:17;;;;;;;7.32;4.97;;;18.10;58.30;;;;;;5021481;28;20451;-60
2022/04/27 03:36:43;;;;;;;8.90;5.32;;;18.10;58.30;;;;;;5018996;28;20575;-59
2022/04/27 03:39:08;;;;;;;7.53;4.95;;;18.10;58.30;;;;;;5017629;28;20458;-60
2022/04/27 03:41:34;;;;;;;8.85;5.45;;;18.10;58.50;;;;;;5022828;28;20509;-59
2022/04/27 03:44:00;;;;;;;8.38;4.78;;;18.10;58.20;;;;;;5014221;28;20026;-60
2022/04/27 03:46:25;;;;;;;7.85;5.05;;;18.10;58.30;;;;;;5016684;28;20040;-60
2022/04/27 03:48:52;;;;;;;7.68;5.10;;;18.00;58.30;;;;;;5018196;28;20401;-60
2022/04/27 03:51:17;;;;;;;8.30;5.13;;;18.10;58.40;;;;;;5016619;28;20029;-60
2022/04/27 03:53:44;;;;;;;8.55;5.25;;;18.00;58.30;;;;;;5011379;28;20036;-60
2022/04/27 03:56:09;;;;;;;8.48;5.22;;;18.00;58.30;;;;;;5015627;28;20109;-60
2022/04/27 03:58:35;;;;;;;7.65;4.78;;;18.00;58.40;;;;;;5020625;28;20041;-60
2022/04/27 04:01:01;;;;;;;7.13;4.55;;;18.00;58.40;;;;;;5017036;28;20622;-60
2022/04/27 04:03:26;;;;;;;9.23;5.22;;;18.00;58.40;;;;;;5020813;28;20029;-60
2022/04/27 04:05:53;;;;;;;8.70;5.00;;;18.00;58.30;;;;;;5015343;28;20474;-60
2022/04/27 04:08:18;;;;;;;7.93;5.00;;;18.00;58.40;;;;;;5019793;28;20079;-60
2022/04/27 04:10:45;;;;;;;7.70;5.00;;;18.00;58.30;;;;;;5015889;28;20034;-60
2022/04/27 04:13:12;;;;;;;8.15;5.18;;;18.00;58.40;;;;;;5013600;28;20415;-60
2022/04/27 04:15:37;;;;;;;7.85;4.60;;;18.00;58.40;;;;;;5016962;28;20022;-60
2022/04/27 04:18:06;;;;;;;7.38;4.72;;;18.00;58.40;;;;;;5014464;28;20076;-60
2022/04/27 04:20:32;;;;;;;7.47;4.95;;;18.00;58.40;;;;;;5013875;28;20487;-60
2022/04/27 04:22:58;;;;;;;9.70;4.72;;;18.00;58.40;;;;;;5019532;28;20041;-60
2022/04/27 04:30:51;;;;;;;7.97;4.78;;;17.90;58.40;;;;;;5019442;28;20063;-60
2022/04/27 04:33:17;;;;;;;8.13;4.88;;;18.00;58.50;;;;;;5015451;28;20030;-60
2022/04/27 04:35:43;;;;;;;9.25;4.80;;;17.90;58.40;;;;;;5014916;28;20033;-59
2022/04/27 04:38:08;;;;;;;8.25;4.70;;;17.90;58.40;;;;;;5010716;28;20040;-60
2022/04/27 04:40:34;;;;;;;7.70;5.00;;;17.90;58.40;;;;;;5019820;28;22086;-60
2022/04/27 04:42:59;;;;;;;10.52;4.93;;;17.90;58.40;;;;;;5020637;28;20030;-60
2022/04/27 04:45:25;;;;;;;7.90;4.65;;;17.90;59.50;;;;;;5018054;28;20045;-60
2022/04/27 04:47:51;;;;;;;8.43;5.13;;;17.90;58.50;;;;;;5015066;28;20137;-59
2022/04/27 04:50:17;;;;;;;7.63;4.65;;;17.90;58.50;;;;;;5019661;28;20018;-60
2022/04/27 04:52:42;;;;;;;8.05;4.72;;;17.90;58.50;;;;;;5022974;28;20418;-60
2022/04/27 04:55:08;;;;;;;7.07;4.70;;;17.90;58.60;;;;;;5018919;28;20029;-59
2022/04/27 04:57:34;;;;;;;8.70;4.80;;;17.90;58.80;;;;;;5024560;28;20076;-60
2022/04/27 05:00:00;;;;;;;7.60;4.57;;;17.80;58.90;;;;;;5018838;28;20498;-60
2022/04/27 05:02:26;;;;;;;13.00;5.50;;;17.80;59.70;;;;;;5023000;28;20038;-60
2022/04/27 05:04:51;;;;;;;12.00;5.43;;;17.90;61.10;;;;;;5014329;28;20033;-60
2022/04/27 05:07:18;;;;;;;8.95;4.53;;;17.90;60.80;;;;;;5013102;28;20454;-60
2022/04/27 05:09:45;;;;;;;10.63;4.53;;;17.90;60.20;;;;;;5016822;28;20022;-60
2022/04/27 05:12:11;;;;;;;10.48;5.28;;;17.90;60.20;;;;;;5013911;28;20029;-60
2022/04/27 05:14:36;;;;;;;15.27;6.32;;;17.90;61.40;;;;;;5014469;28;20383;-60
2022/04/27 05:17:03;;;;;;;13.68;6.05;;;17.90;63.40;;;;;;5024428;28;20074;-61
2022/04/27 05:19:29;;;;;;;13.70;6.20;;;17.90;63.50;;;;;;5022792;28;20116;-60
2022/04/27 05:21:55;;;;;;;11.25;5.85;;;17.90;63.90;;;;;;5015373;28;20105;-60
2022/04/27 05:24:20;;;;;;;10.18;5.68;;;18.00;63.50;;;;;;5020190;28;20470;-60
2022/04/27 05:26:46;;;;;;;15.10;5.75;;;18.00;62.80;;;;;;5020199;28;20037;-61
2022/04/27 05:31:58;;;;;;;14.75;5.70;;;18.00;62.60;;;;;;5009120;28;20092;-61
2022/04/27 05:34:24;;;;;;;16.83;6.32;;;18.00;63.50;;;;;;5021360;28;20056;-60
2022/04/27 05:36:50;;;;;;;13.38;6.10;;;18.00;64.50;;;;;;5032724;28;20095;-61
2022/04/27 05:39:18;;;;;;;13.95;6.03;;;18.00;65.10;;;;;;5027279;28;20029;-60
2022/04/27 05:41:43;;;;;;;17.70;6.20;;;18.00;65.50;;;;;;5031274;28;20104;-61
2022/04/27 05:44:09;;;;;;;17.42;5.88;;;18.00;65.40;;;;;;5020823;28;20120;-61
2022/04/27 05:46:39;;;;;;;13.68;5.50;;;18.00;65.00;;;;;;5019382;28;20049;-61
2022/04/27 05:49:05;;;;;;;14.00;5.85;;;18.10;64.90;;;;;;5017032;28;20034;-61
2022/04/27 05:51:30;;;;;;;13.18;5.53;;;18.00;64.30;;;;;;5013877;28;20083;-61
2022/04/27 05:53:56;;;;;;;14.23;5.65;;;17.90;64.30;;;;;;5012738;28;20021;-61
2022/04/27 05:56:23;;;;;;;16.27;5.78;;;18.00;64.80;;;;;;5013278;28;20387;-61
2022/04/27 05:58:49;;;;;;;13.48;5.78;;;18.00;64.70;;;;;;5012122;28;20675;-61
2022/04/27 06:01:15;;;;;;;17.20;5.55;;;18.00;64.40;;;;;;5015316;28;20034;-61
2022/04/27 06:03:40;;;;;;;14.00;5.53;;;18.00;64.30;;;;;;5019138;28;20032;-61
2022/04/27 06:06:06;;;;;;;14.13;5.78;;;17.90;64.10;;;;;;5012663;28;20029;-61
2022/04/27 06:08:32;;;;;;;16.92;5.68;;;18.00;64.00;;;;;;5013809;28;20337;-61
2022/04/27 06:10:57;;;;;;;14.82;5.65;;;18.00;64.00;;;;;;5019721;28;20025;-61
2022/04/27 06:13:24;;;;;;;14.77;5.75;;;17.90;63.80;;;;;;5021444;28;20093;-61
2022/04/27 06:15:50;;;;;;;12.82;5.93;;;18.00;63.90;;;;;;5016200;28;20034;-61
2022/04/27 06:18:16;;;;;;;12.85;5.93;;;17.90;63.70;;;;;;5011798;28;20027;-61
2022/04/27 06:20:42;;;;;;;15.77;5.50;;;17.90;64.60;;;;;;5010209;28;20038;-61
2022/04/27 06:23:07;;;;;;;14.00;4.82;;;17.90;63.50;;;;;;5014822;28;20038;-61
2022/04/27 06:25:34;;;;;;;13.30;5.50;;;17.90;63.30;;;;;;5023338;28;20033;-61
2022/04/27 06:27:59;;;;;;;15.52;5.57;;;17.90;63.80;;;;;;5021705;28;20447;-61
2022/04/27 06:30:26;;;;;;;11.93;5.35;;;17.90;63.20;;;;;;5031498;28;20097;-61
2022/04/27 06:32:51;;;;;;;13.75;5.78;;;17.90;63.40;;;;;;5023198;28;20540;-61
2022/04/27 06:35:18;;;;;;;15.05;5.97;;;17.90;63.30;;;;;;5013832;28;20028;-61
2022/04/27 06:37:43;;;;;;;12.18;5.68;;;17.90;63.30;;;;;;5018394;28;20103;-61
2022/04/27 06:40:10;;;;;;;13.63;5.53;;;17.90;63.40;;;;;;5025013;28;20418;-61
2022/04/27 06:42:36;;;;;;;13.02;5.60;;;17.90;63.10;;;;;;5019541;28;20026;-62
2022/04/27 06:45:02;;;;;;;13.40;5.82;;;17.90;63.20;;;;;;5015177;28;20030;-61
2022/04/27 06:47:28;;;;;;;12.88;5.45;;;17.90;63.30;;;;;;5021905;28;20049;-61
2022/04/27 06:49:53;;;;;;;12.63;5.70;;;17.90;63.20;;;;;;5022484;28;20030;-61
2022/04/27 06:52:19;;;;;;;13.65;5.65;;;17.90;63.10;;;;;;5034182;28;20058;-61
2022/04/27 06:54:45;;;;;;;11.80;5.78;;;17.90;62.80;;;;;;5025678;28;20112;-61
2022/04/27 06:57:11;;;;;;;12.38;5.90;;;17.90;63.10;;;;;;5025200;28;20461;-61
2022/04/27 06:59:36;;;;;;;13.82;5.30;;;17.90;63.10;;;;;;5013165;28;20033;-61
2022/04/27 07:02:03;;;;;;;13.52;5.80;;;17.90;62.90;;;;;;5016346;28;20021;-61
2022/04/27 07:04:28;;;;;;;12.60;5.78;;;17.90;63.00;;;;;;5034646;28;20041;-61
2022/04/27 07:06:54;;;;;;;13.95;5.47;;;17.90;63.00;;;;;;5028796;28;20033;-61
2022/04/27 07:09:20;;;;;;;15.07;5.40;;;17.90;62.90;;;;;;5026306;28;20029;-61
2022/04/27 07:11:46;;;;;;;11.60;5.55;;;17.90;62.90;;;;;;5025241;28;20025;-61
2022/04/27 07:14:15;;;;;;;11.90;5.65;;;17.90;62.80;;;;;;5020997;28;20084;-61
2022/04/27 07:16:44;;;;;;;11.30;5.78;;;17.90;62.70;;;;;;5012667;28;20034;-61
2022/04/27 07:19:10;;;;;;;10.95;5.25;;;17.90;62.70;;;;;;5028902;28;20036;-61
2022/04/27 07:21:35;;;;;;;11.02;5.43;;;17.90;62.60;;;;;;5022143;28;20034;-61
2022/04/27 07:24:02;;;;;;;13.70;5.68;;;17.90;62.60;;;;;;5021836;28;20058;-61
2022/04/27 07:26:28;;;;;;;11.65;5.68;;;17.90;62.60;;;;;;5014601;28;20041;-61
2022/04/27 07:28:55;;;;;;;11.68;5.75;;;17.90;62.60;;;;;;5016940;28;20040;-61
2022/04/27 07:31:22;;;;;;;13.40;5.57;;;17.90;62.60;;;;;;5024013;28;20129;-61
2022/04/27 07:33:47;;;;;;;10.45;5.30;;;17.90;62.60;;;;;;5019583;28;20508;-61
2022/04/27 07:36:13;;;;;;;13.02;5.57;;;17.90;62.50;;;;;;5022825;28;20029;-61
2022/04/27 07:38:39;;;;;;;11.30;5.50;;;17.90;62.60;;;;;;5016456;28;20376;-61
2022/04/27 07:41:05;;;;;;;12.88;6.10;;;17.90;62.50;;;;;;5020887;28;20037;-61
2022/04/27 07:43:31;;;;;;;9.90;5.47;;;17.90;63.50;;;;;;5019007;28;20176;-61
2022/04/27 07:45:57;;;;;;;11.18;5.70;;;17.90;62.50;;;;;;5021866;28;20087;-61
2022/04/27 07:48:22;;;;;;;11.82;5.65;;;17.90;62.50;;;;;;5022530;28;20049;-61
2022/04/27 07:50:48;;;;;;;11.27;5.75;;;17.90;62.50;;;;;;5017955;28;20029;-61
2022/04/27 07:53:13;;;;;;;11.82;5.53;;;17.90;62.50;;;;;;5022655;28;20033;-61
2022/04/27 07:55:39;;;;;;;11.27;5.38;;;17.90;62.40;;;;;;5023453;28;20065;-61
2022/04/27 07:58:05;;;;;;;11.45;5.72;;;17.90;62.40;;;;;;5023391;28;20336;-61
2022/04/27 08:00:31;;;;;;;10.85;6.22;;;17.90;62.30;;;;;;5028614;28;20025;-61
2022/04/27 08:02:57;;;;;;;11.68;5.55;;;17.90;62.30;;;;;;5016784;28;20018;-61
2022/04/27 08:05:22;;;;;;;10.93;5.65;;;17.90;62.30;;;;;;5019940;28;20029;-61
2022/04/27 08:07:48;;;;;;;11.23;5.60;;;17.90;62.30;;;;;;5027628;28;20042;-61
2022/04/27 08:10:18;;;;;;;12.75;5.80;;;17.90;62.30;;;;;;5017274;28;20694;-61
2022/04/27 08:12:46;;;;;;;11.05;5.78;;;17.90;62.30;;;;;;5026966;28;20498;-61
2022/04/27 08:15:13;;;;;;;9.10;5.40;;;17.90;63.20;;;;;;5025940;28;20024;-61
2022/04/27 08:17:55;;;;;;;10.05;5.80;;;17.90;62.20;;;;;;5017804;28;20036;-61
2022/04/27 08:23:11;;;;;;;11.32;5.45;;;17.90;62.10;;;;;;5015713;28;20057;-61
2022/04/27 08:25:37;;;;;;;10.40;5.40;;;18.00;62.20;;;;;;5019307;28;20030;-61
2022/04/27 08:28:06;;;;;;;10.23;5.65;;;17.90;62.00;;;;;;5021217;28;20041;-61
2022/04/27 08:30:33;;;;;;;10.55;5.70;;;18.00;62.10;;;;;;5016652;28;20037;-61
2022/04/27 08:33:01;;;;;;;12.20;5.80;;;17.90;62.00;;;;;;5017072;28;20032;-61
2022/04/27 08:35:28;;;;;;;10.77;5.85;;;17.90;61.90;;;;;;5022736;28;20080;-60
2022/04/27 08:37:53;;;;;;;9.43;5.60;;;17.90;61.90;;;;;;5018159;28;20054;-61
2022/04/27 08:40:19;;;;;;;10.75;5.78;;;18.00;61.90;;;;;;5019389;28;20060;-61
2022/04/27 08:42:45;;;;;;;10.38;5.80;;;18.00;61.90;;;;;;5021471;28;20482;-60
2022/04/27 08:45:11;;;;;;;10.48;5.60;;;18.00;61.80;;;;;;5018603;28;20040;-61
2022/04/27 08:47:36;;;;;;;10.57;5.93;;;18.00;61.80;;;;;;5018208;28;20050;-61
2022/04/27 08:50:16;;;;;;;10.00;5.75;;;18.00;61.70;;;;;;5028893;28;20036;-61
2022/04/27 08:52:43;;;;;;;10.43;5.78;;;18.00;61.70;;;;;;5020368;28;20113;-61
2022/04/27 08:55:09;;;;;;;9.27;5.57;;;18.10;61.70;;;;;;5017684;28;20391;-61
2022/04/27 08:57:35;;;;;;;9.48;5.55;;;18.10;61.60;;;;;;5017032;28;20040;-61
2022/04/27 09:00:01;;;;;;;10.63;5.88;;;18.00;61.60;;;;;;5017828;28;20116;-61
2022/04/27 09:02:27;;;;;;;10.98;5.82;;;18.00;61.50;;;;;;5019042;28;20457;-61
2022/04/27 09:05:20;;;;;;;9.60;5.75;;;18.00;61.50;;;;;;5014357;28;20036;-61
2022/04/27 09:07:52;;;;;;;9.77;5.68;;;18.10;61.50;;;;;;5011432;28;20585;-61
2022/04/27 09:10:22;;;;;;;10.73;6.05;;;18.10;61.40;;;;;;5012365;28;20022;-61
2022/04/27 09:12:56;;;;;;;10.77;5.80;;;18.10;61.40;;;;;;5025409;28;20042;-61
2022/04/27 09:15:25;;;;;;;9.43;5.50;;;18.10;61.30;;;;;;5019974;28;20029;-61
2022/04/27 09:20:52;;;;;;;10.50;5.88;;;18.10;61.30;;;;;;5017275;28;20044;-61
2022/04/27 09:23:21;;;;;;;9.43;5.45;;;18.10;61.20;;;;;;5020068;28;20060;-61
2022/04/27 09:25:47;;;;;;;9.07;5.82;;;18.20;61.20;;;;;;5020093;28;20410;-61
2022/04/27 09:28:12;;;;;;;10.98;5.97;;;18.10;61.10;;;;;;5028202;28;20037;-61
2022/04/27 09:30:38;;;;;;;10.10;5.40;;;18.20;61.10;;;;;;5023258;28;20440;-61
2022/04/27 09:33:04;;;;;;;9.93;5.22;;;18.20;61.10;;;;;;5015968;28;20255;-61
2022/04/27 09:35:34;;;;;;;9.82;5.90;;;18.20;61.00;;;;;;5016304;28;20034;-61
2022/04/27 09:38:13;;;;;;;9.60;5.57;;;18.20;60.90;;;;;;5015272;28;20026;-59
2022/04/27 09:40:53;;;;;;;8.90;5.00;;;18.20;60.90;;;;;;5020009;28;20092;-59
2022/04/27 09:43:46;;;;;;;10.35;5.43;;;18.20;60.80;;;;;;5024185;28;20442;-59
2022/04/27 09:46:25;;;;;;;10.38;5.20;;;18.20;60.70;;;;;;5019396;28;20038;-59
2022/04/27 09:49:07;;;;;;;9.68;5.20;;;18.20;60.60;;;;;;5022329;28;20120;-59
2022/04/27 09:51:33;;;;;;;9.60;5.50;;;18.20;60.60;;;;;;5011172;28;20042;-59
2022/04/27 09:53:59;;;;;;;9.65;5.40;;;18.20;60.60;;;;;;5021198;28;20510;-59
2022/04/27 09:56:25;;;;;;;9.45;5.28;;;18.20;60.60;;;;;;5013820;28;20033;-59
2022/04/27 09:58:51;;;;;;;9.52;5.20;;;18.30;60.50;;;;;;5008971;28;20029;-59
2022/04/27 10:01:16;;;;;;;10.20;5.55;;;18.20;60.50;;;;;;5025664;28;20406;-59
2022/04/27 10:03:44;;;;;;;8.60;5.18;;;18.30;60.50;;;;;;5016119;28;20029;-59
2022/04/27 10:06:10;;;;;;;9.93;5.70;;;18.30;60.50;;;;;;5020695;28;20111;-59
2022/04/27 10:08:38;;;;;;;11.02;5.20;;;18.20;60.40;;;;;;5013010;28;20033;-59
2022/04/27 10:11:05;;;;;;;9.07;4.97;;;18.30;60.50;;;;;;5021099;28;20080;-60
2022/04/27 10:13:31;;;;;;;8.68;5.07;;;18.30;60.50;;;;;;5026022;28;20108;-61
2022/04/27 10:15:57;;;;;;;10.02;5.18;;;18.30;60.50;;;;;;5024859;28;20129;-61
2022/04/27 10:18:22;;;;;;;9.68;5.03;;;18.30;60.50;;;;;;5023707;28;20548;-61
2022/04/27 10:20:49;;;;;;;7.78;4.70;;;18.30;60.50;;;;;;5022707;28;20390;-61
2022/04/27 10:23:19;;;;;;;8.25;4.63;;;18.40;60.30;;;;;;5000588;28;20037;-61
2022/04/27 10:26:22;;;;;;;10.00;4.80;;;18.30;60.20;;;;;;5017695;28;20506;-61
2022/04/27 10:28:48;;;;;;;8.40;4.78;;;18.40;60.20;;;;;;5009674;28;20034;-61
2022/04/27 10:31:34;;;;;;;8.70;4.88;;;18.40;60.20;;;;;;5022953;28;20029;-61
2022/04/27 10:34:00;;;;;;;8.32;4.68;;;18.40;60.10;;;;;;5021126;28;20033;-61
2022/04/27 10:36:28;;;;;;;8.90;4.95;;;18.40;60.00;;;;;;5016696;28;20045;-61
2022/04/27 10:39:12;;;;;;;8.20;4.90;;;18.40;60.00;;;;;;5016450;28;20345;-61
2022/04/27 10:41:42;;;;;;;8.95;5.05;;;18.40;59.90;;;;;;5019467;28;20040;-61
2022/04/27 10:44:08;;;;;;;7.75;4.45;;;18.40;59.90;;;;;;5020073;28;20038;-62
2022/04/27 10:46:43;;;;;;;8.95;4.60;;;18.50;59.90;;;;;;5021944;28;20060;-61
2022/04/27 10:49:27;;;;;;;8.60;4.80;;;18.50;59.90;;;;;;5023541;28;20033;-61
2022/04/27 10:52:02;;;;;;;8.45;4.82;;;18.50;59.80;;;;;;5014765;28;20431;-61
2022/04/27 10:54:32;;;;;;;7.60;4.28;;;18.50;59.70;;;;;;5020264;28;20559;-62
2022/04/27 10:57:19;;;;;;;7.85;4.45;;;18.50;59.70;;;;;;5017527;28;20029;-61
2022/04/27 10:59:45;;;;;;;9.15;4.70;;;18.50;59.70;;;;;;5015601;28;20021;-61
2022/04/27 11:02:33;;;;;;;9.00;4.90;;;18.50;59.50;;;;;;5010948;28;20570;-61
2022/04/27 11:04:59;;;;;;;10.15;4.68;;;18.50;59.60;;;;;;5015594;28;20276;-61
2022/04/27 11:07:35;;;;;;;8.85;4.60;;;18.50;59.50;;;;;;5020212;28;20080;-62
2022/04/27 11:10:09;;;;;;;8.32;4.53;;;18.60;59.40;;;;;;5023185;28;20017;-62
2022/04/27 11:12:36;;;;;;;8.20;4.70;;;18.60;59.40;;;;;;5020092;28;20054;-61
2022/04/27 11:15:03;;;;;;;9.43;4.93;;;18.60;59.40;;;;;;5024263;28;20341;-61
2022/04/27 11:17:29;;;;;;;9.70;4.95;;;18.60;59.30;;;;;;5028785;28;20239;-61
2022/04/27 11:19:54;;;;;;;8.55;4.60;;;18.60;59.30;;;;;;5028042;28;20678;-61
2022/04/27 11:22:20;;;;;;;8.15;4.50;;;18.60;59.30;;;;;;5017821;28;20026;-61
2022/04/27 11:24:49;;;;;;;8.27;4.60;;;18.60;59.30;;;;;;5018169;28;20026;-61
2022/04/27 11:27:26;;;;;;;7.68;4.53;;;18.60;59.20;;;;;;5019609;28;20033;-61
2022/04/27 11:29:52;;;;;;;8.68;5.28;;;18.60;59.10;;;;;;5023351;28;20035;-61
2022/04/27 11:32:17;;;;;;;7.38;4.38;;;18.60;59.10;;;;;;5019110;28;20026;-61
2022/04/27 11:34:47;;;;;;;7.97;4.80;;;18.70;59.10;;;;;;5019373;28;20462;-62
2022/04/27 11:37:17;;;;;;;8.05;4.53;;;18.70;59.00;;;;;;5023437;28;20029;-61
2022/04/27 11:39:44;;;;;;;8.93;5.00;;;18.70;59.00;;;;;;5026374;28;20056;-61
2022/04/27 11:42:12;;;;;;;8.63;4.90;;;18.70;58.90;;;;;;5020487;28;20159;-62
2022/04/27 11:44:38;;;;;;;7.75;4.60;;;18.70;58.80;;;;;;5015870;28;20113;-61
2022/04/27 11:47:04;;;;;;;8.00;4.68;;;18.70;58.70;;;;;;5014162;28;20054;-61
2022/04/27 11:49:29;;;;;;;8.77;4.60;;;18.80;58.70;;;;;;5025117;28;20026;-62
2022/04/27 11:51:55;;;;;;;8.25;4.95;;;18.80;58.70;;;;;;5026553;28;20415;-61
2022/04/27 11:54:28;;;;;;;9.63;4.90;;;18.80;58.70;;;;;;5025763;28;20533;-61
2022/04/27 11:56:56;;;;;;;7.53;4.70;;;18.80;58.50;;;;;;5025313;28;20646;-61
2022/04/27 11:59:21;;;;;;;9.25;5.35;;;18.80;58.50;;;;;;5023688;28;20030;-61
2022/04/27 12:01:53;;;;;;;8.02;4.53;;;18.80;58.40;;;;;;5021171;28;20502;-61
2022/04/27 12:04:19;;;;;;;8.50;5.00;;;18.80;58.40;;;;;;5033652;28;20029;-61
2022/04/27 12:06:45;;;;;;;8.30;4.35;;;18.90;58.40;;;;;;5027257;28;20184;-61
2022/04/27 12:09:19;;;;;;;7.75;4.68;;;18.90;58.30;;;;;;5020069;28;20532;-61
2022/04/27 12:11:45;;;;;;;8.55;4.95;;;18.90;58.30;;;;;;5015584;28;20655;-61
2022/04/27 12:14:12;;;;;;;8.05;4.80;;;18.90;58.10;;;;;;5025007;28;20068;-61
2022/04/27 12:16:42;;;;;;;9.73;5.45;;;18.90;58.20;;;;;;5022255;28;20044;-61
2022/04/27 12:19:08;;;;;;;7.97;5.05;;;19.00;58.20;;;;;;5028374;28;20426;-61
2022/04/27 12:21:33;;;;;;;7.85;5.05;;;19.00;58.10;;;;;;5022964;28;20035;-61
2022/04/27 12:24:13;;;;;;;9.10;5.20;;;19.00;58.10;;;;;;5018848;28;20048;-61
2022/04/27 12:26:42;;;;;;;10.27;5.00;;;19.00;58.00;;;;;;5016316;28;20044;-61
2022/04/27 12:29:08;;;;;;;8.48;4.75;;;19.00;58.00;;;;;;5024268;28;20065;-61
2022/04/27 12:31:34;;;;;;;9.05;5.10;;;19.00;57.90;;;;;;5018192;28;20033;-61
2022/04/27 12:34:03;;;;;;;9.32;5.10;;;19.10;57.90;;;;;;5012695;28;20029;-61
2022/04/27 12:39:23;;;;;;;8.27;4.90;;;19.10;57.80;;;;;;5020749;28;20033;-61
2022/04/27 12:41:50;;;;;;;9.48;5.05;;;19.10;57.80;;;;;;5019595;28;20067;-61
2022/04/27 12:44:28;;;;;;;9.13;4.97;;;19.10;57.70;;;;;;5013617;28;20029;-61
2022/04/27 12:46:54;;;;;;;8.23;4.72;;;19.10;57.60;;;;;;5014037;28;20519;-61
2022/04/27 12:49:25;;;;;;;9.63;4.82;;;19.10;57.60;;;;;;5019260;28;20022;-61
2022/04/27 12:51:50;;;;;;;8.65;4.60;;;19.20;57.70;;;;;;5022857;28;20449;-61
2022/04/27 12:54:16;;;;;;;8.38;4.63;;;19.20;57.60;;;;;;5022402;28;20029;-61
2022/04/27 12:56:42;;;;;;;8.73;4.90;;;19.20;57.60;;;;;;5022681;28;20028;-61
2022/04/27 12:59:11;;;;;;;9.38;4.80;;;19.20;57.50;;;;;;5015566;28;20061;-61
2022/04/27 13:01:36;;;;;;;9.07;4.90;;;19.30;57.50;;;;;;5016310;28;20026;-61
2022/04/27 13:04:02;;;;;;;9.55;5.03;;;19.30;57.50;;;;;;5017194;28;20030;-61
2022/04/27 13:06:31;;;;;;;8.32;4.68;;;19.30;57.30;;;;;;5017690;28;20044;-61